Wetterstation Vordersexau
Wetterdaten: Woche 10.04.23 - 16.04.23 (KW15)
Datum Zeit Temp. A. Feuchte A. Luftdruck Regen Wind Richtung Taupunkt Windchill Windben
10.04.2023 00:00 8,6 C 63 % 1018,0 hPa 0,0 l/m 0,0 km/h (0 Bft) O-NO 2,0 C 8,6 C 2,5 km/h (1 Bft)
10.04.2023 01:00 7,8 C 65 % 1018,1 hPa 0,0 l/m 2,5 km/h (1 Bft) NO 1,6 C 7,8 C 6,1 km/h (2 Bft)
10.04.2023 02:00 6,0 C 72 % 1018,0 hPa 0,0 l/m 3,6 km/h (1 Bft) O-NO 1,3 C 6,0 C 6,1 km/h (2 Bft)
10.04.2023 03:00 5,0 C 76 % 1017,6 hPa 0,0 l/m 2,5 km/h (1 Bft) O-SO 1,1 C 5,0 C 3,6 km/h (1 Bft)
10.04.2023 04:00 4,0 C 80 % 1017,6 hPa 0,0 l/m 5,0 km/h (1 Bft) N 0,9 C 4,0 C 7,2 km/h (2 Bft)
10.04.2023 05:00 3,5 C 81 % 1017,3 hPa 0,0 l/m 0,0 km/h (0 Bft) O 0,6 C 3,5 C 0,0 km/h (0 Bft)
10.04.2023 06:00 2,5 C 84 % 1004,4 hPa 0,0 l/m 1,1 km/h (1 Bft) O 0,1 C 2,5 C 2,5 km/h (1 Bft)
10.04.2023 07:00 2,4 C 85 % 1017,4 hPa 0,0 l/m 1,1 km/h (1 Bft) O 0,1 C 2,4 C 2,5 km/h (1 Bft)
10.04.2023 08:00 3,5 C 88 % 1017,5 hPa 0,0 l/m 1,1 km/h (1 Bft) O 1,7 C 3,5 C 2,5 km/h (1 Bft)
10.04.2023 09:00 8,0 C 73 % 1017,5 hPa 0,0 l/m 1,1 km/h (1 Bft) SW 3,5 C 8,0 C 2,5 km/h (1 Bft)
10.04.2023 10:00 11,1 C 67 % 1017,3 hPa 0,0 l/m 1,1 km/h (1 Bft) SW 5,2 C 11,1 C 2,5 km/h (1 Bft)
10.04.2023 11:00 12,2 C 62 % 1016,8 hPa 0,0 l/m 6,1 km/h (2 Bft) SW 5,1 C 12,2 C 7,2 km/h (2 Bft)
10.04.2023 12:00 14,2 C 55 % 1016,2 hPa 0,0 l/m 3,6 km/h (1 Bft) W-NW 5,3 C 14,2 C 6,1 km/h (2 Bft)
10.04.2023 13:00 16,3 C 52 % 1015,7 hPa 0,0 l/m 5,0 km/h (1 Bft) W 6,4 C 16,3 C 7,2 km/h (2 Bft)
10.04.2023 14:00 16,7 C 53 % 1015,1 hPa 0,0 l/m 2,5 km/h (1 Bft) W 7,1 C 16,7 C 6,1 km/h (2 Bft)
10.04.2023 15:00 17,7 C 52 % 1014,6 hPa 0,0 l/m 2,5 km/h (1 Bft) W-SW 7,7 C 17,7 C 3,6 km/h (1 Bft)
10.04.2023 16:00 16,9 C 48 % 1014,1 hPa 0,0 l/m 8,6 km/h (2 Bft) SW 5,8 C 15,8 C 11,2 km/h (2 Bft)
10.04.2023 17:00 16,8 C 53 % 1013,5 hPa 0,0 l/m 7,2 km/h (2 Bft) SW 7,2 C 16,4 C 9,7 km/h (2 Bft)
10.04.2023 18:00 16,5 C 56 % 1012,9 hPa 0,0 l/m 7,2 km/h (2 Bft) SW 7,7 C 16,1 C 11,2 km/h (2 Bft)
10.04.2023 19:00 16,2 C 58 % 1012,9 hPa 0,0 l/m 6,1 km/h (2 Bft) S 7,9 C 16,2 C 7,2 km/h (2 Bft)
10.04.2023 20:00 15,9 C 50 % 1012,2 hPa 0,0 l/m 12,2 km/h (2 Bft) SW 5,5 C 13,2 C 22,0 km/h (4 Bft)
10.04.2023 21:00 15,6 C 50 % 1013,2 hPa 0,0 l/m 11,2 km/h (2 Bft) S-SW 5,2 C 13,3 C 17,3 km/h (3 Bft)
10.04.2023 22:00 14,1 C 62 % 1013,5 hPa 0,0 l/m 8,6 km/h (2 Bft) SO 6,9 C 12,8 C 11,2 km/h (2 Bft)
10.04.2023 23:00 12,7 C 71 % 999,6 hPa 0,3 l/m 1,1 km/h (1 Bft) SW 7,6 C 12,7 C 3,6 km/h (1 Bft)
11.04.2023 00:00 14,4 C 59 % 1011,9 hPa 0,0 l/m 6,1 km/h (2 Bft) SW 6,5 C 14,4 C 9,7 km/h (2 Bft)
11.04.2023 01:00 14,5 C 59 % 1011,1 hPa 0,0 l/m 7,2 km/h (2 Bft) W-SW 6,6 C 14,0 C 9,7 km/h (2 Bft)
11.04.2023 02:00 15,1 C 58 % 1010,1 hPa 0,0 l/m 9,7 km/h (2 Bft) W-SW 6,9 C 13,4 C 17,3 km/h (3 Bft)
11.04.2023 03:00 13,4 C 75 % 1010,4 hPa 0,0 l/m 13,3 km/h (3 Bft) S-SW 9,1 C 9,9 C 17,3 km/h (3 Bft)
11.04.2023 04:00 12,1 C 87 % 1010,6 hPa 0,3 l/m 12,2 km/h (2 Bft) W-SW 10,0 C 8,8 C 18,4 km/h (3 Bft)
11.04.2023 05:00 12,2 C 86 % 1010,6 hPa 0,0 l/m 17,3 km/h (3 Bft) W-SW 9,9 C 7,0 C 20,9 km/h (4 Bft)
11.04.2023 06:00 12,1 C 82 % 1011,0 hPa 0,0 l/m 6,1 km/h (2 Bft) NO 9,1 C 12,1 C 7,2 km/h (2 Bft)
11.04.2023 07:00 8,4 C 90 % 1013,1 hPa 0,9 l/m 2,5 km/h (1 Bft) SO 6,9 C 8,4 C 3,6 km/h (1 Bft)
11.04.2023 08:00 8,0 C 92 % 1013,3 hPa 0,3 l/m 1,1 km/h (1 Bft) SO 6,8 C 8,0 C 2,5 km/h (1 Bft)
11.04.2023 09:00 7,9 C 90 % 1013,7 hPa 0,0 l/m 6,1 km/h (2 Bft) O-SO 6,4 C 7,9 C 9,7 km/h (2 Bft)
11.04.2023 10:00 9,4 C 85 % 1014,2 hPa 0,0 l/m 2,5 km/h (1 Bft) S-SO 7,0 C 9,4 C 6,1 km/h (2 Bft)
11.04.2023 11:00 11,9 C 72 % 1014,3 hPa 0,0 l/m 6,1 km/h (2 Bft) W 7,0 C 11,9 C 9,7 km/h (2 Bft)
11.04.2023 12:00 12,4 C 61 % 1014,1 hPa 0,0 l/m 8,6 km/h (2 Bft) W 5,1 C 11,0 C 13,3 km/h (3 Bft)
11.04.2023 13:00 13,5 C 62 % 1013,8 hPa 0,0 l/m 9,7 km/h (2 Bft) W 6,4 C 11,6 C 11,2 km/h (2 Bft)
11.04.2023 14:00 13,1 C 55 % 1013,7 hPa 0,0 l/m 9,7 km/h (2 Bft) W-SW 4,3 C 11,2 C 14,8 km/h (3 Bft)
11.04.2023 15:00 13,1 C 57 % 1013,5 hPa 0,0 l/m 8,6 km/h (2 Bft) W-SW 4,8 C 11,8 C 13,3 km/h (3 Bft)
11.04.2023 16:00 13,6 C 58 % 1013,2 hPa 0,0 l/m 7,2 km/h (2 Bft) W-SW 5,5 C 13,1 C 9,7 km/h (2 Bft)
11.04.2023 17:00 13,6 C 53 % 1012,6 hPa 0,0 l/m 7,2 km/h (2 Bft) W-SW 4,2 C 13,1 C 11,2 km/h (2 Bft)
11.04.2023 18:00 12,7 C 57 % 1012,4 hPa 0,0 l/m 5,0 km/h (1 Bft) SW 4,4 C 12,7 C 7,2 km/h (2 Bft)
11.04.2023 19:00 12,3 C 58 % 1011,8 hPa 0,0 l/m 5,0 km/h (1 Bft) SW 4,3 C 12,3 C 6,1 km/h (2 Bft)
11.04.2023 20:00 11,5 C 62 % 1011,5 hPa 0,0 l/m 3,6 km/h (1 Bft) S-SO 4,5 C 11,5 C 3,6 km/h (1 Bft)
11.04.2023 21:00 10,6 C 68 % 1011,5 hPa 0,0 l/m 1,1 km/h (1 Bft) SO 4,9 C 10,6 C 3,6 km/h (1 Bft)
11.04.2023 22:00 10,1 C 70 % 1010,6 hPa 0,0 l/m 2,5 km/h (1 Bft) W-SW 4,9 C 10,1 C 3,6 km/h (1 Bft)
11.04.2023 23:00 10,6 C 70 % 1010,4 hPa 0,0 l/m 5,0 km/h (1 Bft) S-SW 5,4 C 10,6 C 7,2 km/h (2 Bft)
12.04.2023 00:00 9,3 C 83 % 1010,1 hPa 0,0 l/m 2,5 km/h (1 Bft) S-SW 6,6 C 9,3 C 6,1 km/h (2 Bft)
12.04.2023 01:00 8,8 C 83 % 1009,0 hPa 0,0 l/m 0,0 km/h (0 Bft) SO 6,1 C 8,8 C 2,5 km/h (1 Bft)
12.04.2023 02:00 8,1 C 91 % 1007,9 hPa 0,0 l/m 1,1 km/h (1 Bft) N 6,7 C 8,1 C 2,5 km/h (1 Bft)
12.04.2023 03:00 7,9 C 92 % 1006,5 hPa 0,3 l/m 0,0 km/h (0 Bft) N 6,7 C 7,9 C 0,0 km/h (0 Bft)
12.04.2023 04:00 7,6 C 94 % 1005,4 hPa 0,3 l/m 0,0 km/h (0 Bft) O-SO 6,7 C 7,6 C 2,5 km/h (1 Bft)
12.04.2023 05:00 7,7 C 95 % 1004,2 hPa 0,6 l/m 1,1 km/h (1 Bft) O 7,0 C 7,7 C 2,5 km/h (1 Bft)
12.04.2023 06:00 7,9 C 97 % 1003,5 hPa 0,9 l/m 2,5 km/h (1 Bft) O-NO 7,5 C 7,9 C 3,6 km/h (1 Bft)
12.04.2023 07:00 8,1 C 96 % 1002,9 hPa 0,0 l/m 2,5 km/h (1 Bft) O-NO 7,5 C 8,1 C 6,1 km/h (2 Bft)
12.04.2023 08:00 8,4 C 96 % 1001,7 hPa 0,0 l/m 5,0 km/h (1 Bft) O-NO 7,8 C 8,4 C 7,2 km/h (2 Bft)
12.04.2023 09:00 9,4 C 94 % 1001,2 hPa 0,0 l/m 1,1 km/h (1 Bft) W 8,5 C 9,4 C 2,5 km/h (1 Bft)
12.04.2023 10:00 11,9 C 76 % 1001,2 hPa 0,0 l/m 8,6 km/h (2 Bft) S 7,8 C 10,5 C 13,3 km/h (3 Bft)
12.04.2023 11:00 10,7 C 83 % 1001,7 hPa 0,6 l/m 8,6 km/h (2 Bft) SW 7,9 C 9,2 C 11,2 km/h (2 Bft)
12.04.2023 12:00 11,3 C 83 % 1001,1 hPa 0,9 l/m 7,2 km/h (2 Bft) S-SW 8,5 C 10,8 C 13,3 km/h (3 Bft)
12.04.2023 13:00 12,6 C 78 % 1000,4 hPa 0,0 l/m 12,2 km/h (2 Bft) S-SW 8,9 C 9,4 C 17,3 km/h (3 Bft)
12.04.2023 14:00 13,5 C 74 % 999,3 hPa 0,0 l/m 17,3 km/h (3 Bft) W 9,0 C 8,6 C 31,7 km/h (5 Bft)
12.04.2023 15:00 14,1 C 73 % 998,7 hPa 0,0 l/m 15,8 km/h (3 Bft) W-SW 9,3 C 9,8 C 24,5 km/h (4 Bft)
12.04.2023 16:00 14,4 C 69 % 998,8 hPa 0,0 l/m 23,4 km/h (4 Bft) N 8,8 C 8,1 C 36,7 km/h (5 Bft)
12.04.2023 17:00 9,2 C 94 % 999,8 hPa 1,8 l/m 0,0 km/h (0 Bft) SO 8,3 C 9,2 C 2,5 km/h (1 Bft)
12.04.2023 18:00 9,2 C 95 % 1000,2 hPa 4,5 l/m 2,5 km/h (1 Bft) S 8,4 C 9,2 C 3,6 km/h (1 Bft)
12.04.2023 19:00 9,6 C 90 % 999,7 hPa 0,6 l/m 6,1 km/h (2 Bft) S-SW 8,0 C 9,6 C 9,7 km/h (2 Bft)
12.04.2023 20:00 9,0 C 89 % 1000,1 hPa 1,5 l/m 6,1 km/h (2 Bft) SW 7,3 C 9,0 C 9,7 km/h (2 Bft)
12.04.2023 21:00 9,1 C 86 % 1001,1 hPa 0,0 l/m 1,1 km/h (1 Bft) SO 6,9 C 9,1 C 2,5 km/h (1 Bft)
12.04.2023 22:00 7,0 C 95 % 1002,7 hPa 2,7 l/m 3,6 km/h (1 Bft) N 6,3 C 7,0 C 6,1 km/h (2 Bft)
12.04.2023 23:00 7,2 C 95 % 1003,3 hPa 0,0 l/m 0,0 km/h (0 Bft) W 6,5 C 7,2 C 0,0 km/h (0 Bft)
13.04.2023 00:00 7,1 C 92 % 1003,5 hPa 0,0 l/m 2,5 km/h (1 Bft) W 5,9 C 7,1 C 7,2 km/h (2 Bft)
13.04.2023 01:00 7,7 C 88 % 1003,4 hPa 0,0 l/m 8,6 km/h (2 Bft) W-SW 5,8 C 6,0 C 14,8 km/h (3 Bft)
13.04.2023 02:00 7,3 C 85 % 1003,3 hPa 0,0 l/m 9,7 km/h (2 Bft) W-SW 4,9 C 4,8 C 18,4 km/h (3 Bft)
13.04.2023 03:00 6,9 C 83 % 1003,4 hPa 0,0 l/m 11,2 km/h (2 Bft) SW 4,2 C 3,4 C 18,4 km/h (3 Bft)
13.04.2023 04:00 6,6 C 80 % 1003,5 hPa 0,0 l/m 8,6 km/h (2 Bft) SW 3,4 C 4,8 C 13,3 km/h (3 Bft)
13.04.2023 05:00 6,5 C 80 % 1003,6 hPa 0,0 l/m 5,0 km/h (1 Bft) W-SW 3,3 C 6,5 C 7,2 km/h (2 Bft)
13.04.2023 06:00 6,4 C 78 % 1003,6 hPa 0,0 l/m 9,7 km/h (2 Bft) S 2,8 C 3,8 C 13,3 km/h (3 Bft)
13.04.2023 07:00 6,5 C 78 % 1004,1 hPa 0,0 l/m 13,3 km/h (3 Bft) W-SW 2,9 C 1,8 C 18,4 km/h (3 Bft)
13.04.2023 08:00 6,7 C 78 % 1004,4 hPa 0,0 l/m 11,2 km/h (2 Bft) W-SW 3,1 C 3,2 C 14,8 km/h (3 Bft)
13.04.2023 09:00 7,3 C 78 % 1004,5 hPa 0,0 l/m 11,2 km/h (2 Bft) W 3,7 C 3,9 C 17,3 km/h (3 Bft)
13.04.2023 10:00 7,1 C 83 % 1004,9 hPa 0,0 l/m 7,2 km/h (2 Bft) W 4,4 C 6,4 C 11,2 km/h (2 Bft)
13.04.2023 11:00 8,7 C 74 % 1004,7 hPa 0,0 l/m 9,7 km/h (2 Bft) SW 4,3 C 6,3 C 13,3 km/h (3 Bft)
13.04.2023 12:00 10,1 C 72 % 1004,1 hPa 0,0 l/m 8,6 km/h (2 Bft) W-SW 5,3 C 8,6 C 11,2 km/h (2 Bft)
13.04.2023 13:00 10,8 C 73 % 1003,9 hPa 0,0 l/m 9,7 km/h (2 Bft) W-SW 6,2 C 8,6 C 13,3 km/h (3 Bft)
13.04.2023 14:00 7,0 C 90 % 1004,4 hPa 0,9 l/m 11,2 km/h (2 Bft) SO 5,5 C 3,5 C 17,3 km/h (3 Bft)
13.04.2023 15:00 9,8 C 77 % 1004,0 hPa 0,0 l/m 12,2 km/h (2 Bft) S 6,0 C 6,2 C 18,4 km/h (3 Bft)
13.04.2023 16:00 11,0 C 71 % 1003,8 hPa 0,0 l/m 3,6 km/h (1 Bft) S-SW 5,9 C 11,0 C 3,6 km/h (1 Bft)
13.04.2023 17:00 11,2 C 69 % 1003,7 hPa 0,0 l/m 2,5 km/h (1 Bft) NO 5,7 C 11,2 C 3,6 km/h (1 Bft)
13.04.2023 18:00 11,5 C 65 % 1003,9 hPa 0,0 l/m 1,1 km/h (1 Bft) SO 5,2 C 11,5 C 2,5 km/h (1 Bft)
13.04.2023 19:00 10,6 C 70 % 1004,1 hPa 0,0 l/m 3,6 km/h (1 Bft) N 5,4 C 10,6 C 3,6 km/h (1 Bft)
13.04.2023 20:00 7,9 C 84 % 1004,6 hPa 0,0 l/m 0,0 km/h (0 Bft) O-SO 5,4 C 7,9 C 0,0 km/h (0 Bft)
13.04.2023 21:00 6,4 C 88 % 1005,2 hPa 0,0 l/m 3,6 km/h (1 Bft) N 4,6 C 6,4 C 3,6 km/h (1 Bft)
13.04.2023 22:00 5,5 C 91 % 1005,4 hPa 0,0 l/m 0,0 km/h (0 Bft) SO 4,2 C 5,5 C 2,5 km/h (1 Bft)
13.04.2023 23:00 5,1 C 92 % 1005,7 hPa 0,0 l/m 3,6 km/h (1 Bft) N 3,9 C 5,1 C 6,1 km/h (2 Bft)
14.04.2023 00:00 4,0 C 94 % 1005,8 hPa 0,0 l/m 0,0 km/h (0 Bft) O-SO 3,1 C 4,0 C 2,5 km/h (1 Bft)
14.04.2023 01:00 3,8 C 95 % 1006,4 hPa 0,0 l/m 1,1 km/h (1 Bft) O-SO 3,1 C 3,8 C 2,5 km/h (1 Bft)
14.04.2023 02:00 3,7 C 94 % 1006,2 hPa 0,0 l/m 1,1 km/h (1 Bft) SO 2,8 C 3,7 C 3,6 km/h (1 Bft)
14.04.2023 03:00 2,7 C 95 % 1006,4 hPa 0,0 l/m 3,6 km/h (1 Bft) N 2,0 C 2,7 C 6,1 km/h (2 Bft)
14.04.2023 04:00 2,0 C 96 % 1006,5 hPa 0,0 l/m 0,0 km/h (0 Bft) O-SO 1,4 C 2,0 C 2,5 km/h (1 Bft)
14.04.2023 05:00 1,5 C 96 % 1006,7 hPa 0,0 l/m 2,5 km/h (1 Bft) O-SO 0,9 C 1,5 C 3,6 km/h (1 Bft)
14.04.2023 06:00 1,4 C 97 % 1006,9 hPa 0,0 l/m 1,1 km/h (1 Bft) O-SO 1,0 C 1,4 C 3,6 km/h (1 Bft)
14.04.2023 07:00 1,3 C 97 % 1007,4 hPa 0,0 l/m 1,1 km/h (1 Bft) SO 0,9 C 1,3 C 2,5 km/h (1 Bft)
14.04.2023 08:00 3,7 C 94 % 1007,6 hPa 0,0 l/m 1,1 km/h (1 Bft) N 2,8 C 3,7 C 2,5 km/h (1 Bft)
14.04.2023 09:00 7,1 C 84 % 1007,1 hPa 0,0 l/m 0,0 km/h (0 Bft) N 4,6 C 7,1 C 0,0 km/h (0 Bft)
14.04.2023 10:00 9,6 C 76 % 1006,8 hPa 0,0 l/m 0,0 km/h (0 Bft) W 5,6 C 9,6 C 2,5 km/h (1 Bft)
14.04.2023 11:00 11,0 C 65 % 1006,5 hPa 0,0 l/m 1,1 km/h (1 Bft) W-SW 4,7 C 11,0 C 6,1 km/h (2 Bft)
14.04.2023 12:00 11,9 C 68 % 1005,8 hPa 0,0 l/m 5,0 km/h (1 Bft) N-NO 6,2 C 11,9 C 7,2 km/h (2 Bft)
14.04.2023 13:00 12,4 C 51 % 1005,2 hPa 0,0 l/m 1,1 km/h (1 Bft) W 2,6 C 12,4 C 2,5 km/h (1 Bft)
14.04.2023 14:00 12,9 C 52 % 1004,5 hPa 0,0 l/m 9,7 km/h (2 Bft) W-SW 3,3 C 11,0 C 13,3 km/h (3 Bft)
14.04.2023 15:00 14,3 C 51 % 1003,6 hPa 0,0 l/m 5,0 km/h (1 Bft) N-NW 4,3 C 14,3 C 7,2 km/h (2 Bft)
14.04.2023 16:00 14,8 C 43 % 1002,6 hPa 0,0 l/m 2,5 km/h (1 Bft) W-SW 2,3 C 14,8 C 3,6 km/h (1 Bft)
14.04.2023 17:00 14,7 C 48 % 1002,6 hPa 0,0 l/m 7,2 km/h (2 Bft) W-SW 3,8 C 14,2 C 9,7 km/h (2 Bft)
14.04.2023 18:00 14,7 C 40 % 1002,4 hPa 0,0 l/m 3,6 km/h (1 Bft) N 1,2 C 14,7 C 6,1 km/h (2 Bft)
Min-Datum _ 14.04.23 14.04.23 12.04.23 - 10.04.23 - 10.04.23 14.04.23 10.04.23
_ Min-Zeit 07:37 18:37 15:37 - 00:37 - 06:37 07:37 05:37
Minimum _ 1,3 C 40 % 998,7 hPa - 0,0 km/h (0 Bft) - 0,1 C 1,3 C 0,0 km/h (0 Bft)
Max-Datum _ 10.04.23 12.04.23 10.04.23 12.04.23 12.04.23 - 11.04.23 10.04.23 12.04.23
_ Max-Zeit 15:37 06:37 01:37 18:37 16:37 - 04:37 15:37 16:37
Maximum _ 17,7 C 97 % 1018,1 hPa 4,5 l/m 23,4 km/h
N (4 Bft)
- 10,0 C 17,7 C 36,7 km/h
N (5 Bft)
Durchschnitt _ 9,8 C 75 % 1007,9 hPa #17,4 l/m 5,3 km/h (1 Bft) W-SW 5,3 C 9,0 C 8,3 km/h (2 Bft)
www.sexauwetter.de